Station Historical Data
Daily Summary for May 5, 2017 Units:  Both    English   Metric
« Previous Day
Next Day »
Daily Weekly Monthly Yearly Custom
  High: Low: Average:
Temperature: 49.5 °F /  9.7 °C 44.8 °F /  7.1 °C 47.5 °F /  8.6 °C
Dew Point: 48.1 °F /  8.9 °C 43.2 °F /  6.2 °C 45.9 °F /  7.7 °C
Humidity: 95% 92% 94%
Wind Speed: 10.0mph /  16.1km/h - 2.7mph /  4.3km/h
Wind Gust: 19.0mph /  30.6km/h - -
Wind- - SSE
Pressure: 29.84 in /  1010.4 hPa 29.41 in /  995.8 hPa -
Precipitation: 0.00 in /  0 mm    
Historical Graphs
 
 
Tabular Data for May 5, 2017
Time Temperature Dew Point Pressure Wind Wind Speed Wind Gust Humidity Rainfall Rate (Hourly)
00:04 46.3 °F /  7.9 °C 44.1 °F /  6.7 °C 29.84in /  1010.4hPa NE 1.0mph /  1.6km/h 4.0mph /  6.4km/h 92% 0.02in /  0.51mm
00:14 46.3 °F /  7.9 °C 44.1 °F /  6.7 °C 29.84in /  1010.4hPa NE 1.0mph /  1.6km/h 5.0mph /  8km/h 92% 0.03in /  0.76mm
00:19 46.3 °F /  7.9 °C 44.1 °F /  6.7 °C 29.84in /  1010.4hPa NE 2.0mph /  3.2km/h 3.0mph /  4.8km/h 92% 0.04in /  1.02mm
00:24 46.3 °F /  7.9 °C 44.1 °F /  6.7 °C 29.83in /  1010hPa NE 2.0mph /  3.2km/h 5.0mph /  8km/h 92% 0.04in /  1.02mm
00:29 46.3 °F /  7.9 °C 44.4 °F /  6.9 °C 29.83in /  1010hPa NE 2.0mph /  3.2km/h 3.0mph /  4.8km/h 93% 0.04in /  1.02mm
00:34 46.3 °F /  7.9 °C 44.4 °F /  6.9 °C 29.83in /  1010hPa NE 2.0mph /  3.2km/h 4.0mph /  6.4km/h 93% 0.05in /  1.27mm
00:39 46.3 °F /  7.9 °C 44.4 °F /  6.9 °C 29.83in /  1010hPa NE 2.0mph /  3.2km/h 4.0mph /  6.4km/h 93% 0.06in /  1.52mm
00:44 46.3 °F /  7.9 °C 44.4 °F /  6.9 °C 29.83in /  1010hPa NE 1.0mph /  1.6km/h 3.0mph /  4.8km/h 93% 0.05in /  1.27mm
00:49 46.3 °F /  7.9 °C 44.4 °F /  6.9 °C 29.83in /  1010hPa NE 1.0mph /  1.6km/h 2.0mph /  3.2km/h 93% 0.05in /  1.27mm
00:54 46.3 °F /  7.9 °C 44.4 °F /  6.9 °C 29.83in /  1010hPa NE 1.0mph /  1.6km/h 2.0mph /  3.2km/h 93% 0.06in /  1.52mm
01:00 46.3 °F /  7.9 °C 44.4 °F /  6.9 °C 29.82in /  1009.7hPa NE 1.0mph /  1.6km/h 4.0mph /  6.4km/h 93% 0.06in /  1.52mm
01:04 46.3 °F /  7.9 °C 44.4 °F /  6.9 °C 29.82in /  1009.7hPa NE 1.0mph /  1.6km/h 4.0mph /  6.4km/h 93% 0.06in /  1.52mm
01:09 46.4 °F /  8 °C 44.5 °F /  6.9 °C 29.82in /  1009.7hPa Calm   2.0mph /  3.2km/h 93% 0.05in /  1.27mm
01:14 46.4 °F /  8 °C 44.5 °F /  6.9 °C 29.82in /  1009.7hPa Calm     93% 0.06in /  1.52mm
01:19 46.4 °F /  8 °C 44.5 °F /  6.9 °C 29.82in /  1009.7hPa Calm     93% 0.05in /  1.27mm
01:24 46.5 °F /  8.1 °C 44.6 °F /  7 °C 29.82in /  1009.7hPa Calm     93% 0.06in /  1.52mm
01:29 46.6 °F /  8.1 °C 44.7 °F /  7.1 °C 29.81in /  1009.4hPa NE 3.0mph /  4.8km/h 4.0mph /  6.4km/h 93% 0.08in /  2.03mm
01:34 46.6 °F /  8.1 °C 44.7 °F /  7.1 °C 29.81in /  1009.4hPa NE 1.0mph /  1.6km/h 4.0mph /  6.4km/h 93% 0.09in /  2.29mm
01:39 46.7 °F /  8.2 °C 44.8 °F /  7.1 °C 29.80in /  1009hPa NE 1.0mph /  1.6km/h 4.0mph /  6.4km/h 93% 0.09in /  2.29mm
01:44 46.7 °F /  8.2 °C 45.1 °F /  7.3 °C 29.80in /  1009hPa NE 1.0mph /  1.6km/h 2.0mph /  3.2km/h 94% 0.10in /  2.54mm
01:49 46.7 °F /  8.2 °C 45.1 °F /  7.3 °C 29.80in /  1009hPa NE 1.0mph /  1.6km/h 2.0mph /  3.2km/h 94% 0.11in /  2.79mm
01:54 46.7 °F /  8.2 °C 45.1 °F /  7.3 °C 29.80in /  1009hPa Calm   3.0mph /  4.8km/h 94% 0.11in /  2.79mm
01:59 46.9 °F /  8.3 °C 45.3 °F /  7.4 °C 29.79in /  1008.7hPa NE 1.0mph /  1.6km/h 2.0mph /  3.2km/h 94% 0.11in /  2.79mm
02:04 46.9 °F /  8.3 °C 45.3 °F /  7.4 °C 29.79in /  1008.7hPa NE 1.0mph /  1.6km/h 3.0mph /  4.8km/h 94% 0.12in /  3.05mm
02:09 46.9 °F /  8.3 °C 45.3 °F /  7.4 °C 29.79in /  1008.7hPa NE 2.0mph /  3.2km/h 5.0mph /  8km/h 94% 0.12in /  3.05mm
02:14 46.8 °F /  8.2 °C 45.2 °F /  7.3 °C 29.78in /  1008.4hPa NNE 2.0mph /  3.2km/h 5.0mph /  8km/h 94% 0.12in /  3.05mm
02:19 46.8 °F /  8.2 °C 44.9 °F /  7.2 °C 29.78in /  1008.4hPa NNW 1.0mph /  1.6km/h 5.0mph /  8km/h 93% 0.13in /  3.3mm
02:24 46.7 °F /  8.2 °C 45.1 °F /  7.3 °C 29.78in /  1008.4hPa NNW 1.0mph /  1.6km/h 3.0mph /  4.8km/h 94% 0.13in /  3.3mm
02:29 46.7 °F /  8.2 °C 45.1 °F /  7.3 °C 29.78in /  1008.4hPa NNW 2.0mph /  3.2km/h 3.0mph /  4.8km/h 94% 0.12in /  3.05mm
02:34 46.7 °F /  8.2 °C 45.1 °F /  7.3 °C 29.78in /  1008.4hPa NNW 2.0mph /  3.2km/h 3.0mph /  4.8km/h 94% 0.10in /  2.54mm
02:39 46.7 °F /  8.2 °C 45.1 °F /  7.3 °C 29.77in /  1008hPa NNW 2.0mph /  3.2km/h 4.0mph /  6.4km/h 94% 0.09in /  2.29mm
02:44 46.8 °F /  8.2 °C 45.2 °F /  7.3 °C 29.77in /  1008hPa Calm   4.0mph /  6.4km/h 94% 0.10in /  2.54mm
02:49 46.8 °F /  8.2 °C 45.2 °F /  7.3 °C 29.77in /  1008hPa NNW 3.0mph /  4.8km/h 3.0mph /  4.8km/h 94% 0.09in /  2.29mm
02:54 46.7 °F /  8.2 °C 45.1 °F /  7.3 °C 29.76in /  1007.7hPa NE 1.0mph /  1.6km/h 3.0mph /  4.8km/h 94% 0.09in /  2.29mm
02:59 46.8 °F /  8.2 °C 45.2 °F /  7.3 °C 29.77in /  1008hPa NNW 4.0mph /  6.4km/h 4.0mph /  6.4km/h 94% 0.09in /  2.29mm
03:04 46.8 °F /  8.2 °C 45.2 °F /  7.3 °C 29.76in /  1007.7hPa NNW 2.0mph /  3.2km/h 4.0mph /  6.4km/h 94% 0.08in /  2.03mm
03:09 46.9 °F /  8.3 °C 45.3 °F /  7.4 °C 29.75in /  1007.3hPa North 1.0mph /  1.6km/h 4.0mph /  6.4km/h 94% 0.09in /  2.29mm
03:14 47.0 °F /  8.3 °C 45.4 °F /  7.4 °C 29.75in /  1007.3hPa North 1.0mph /  1.6km/h 3.0mph /  4.8km/h 94% 0.08in /  2.03mm
03:19 47.1 °F /  8.4 °C 45.5 °F /  7.5 °C 29.75in /  1007.3hPa North 1.0mph /  1.6km/h 2.0mph /  3.2km/h 94% 0.08in /  2.03mm
03:24 47.1 °F /  8.4 °C 45.5 °F /  7.5 °C 29.75in /  1007.3hPa North 1.0mph /  1.6km/h 3.0mph /  4.8km/h 94% 0.07in /  1.78mm
03:29 47.1 °F /  8.4 °C 45.5 °F /  7.5 °C 29.75in /  1007.3hPa Calm     94% 0.08in /  2.03mm
03:34 47.2 °F /  8.4 °C 45.6 °F /  7.6 °C 29.75in /  1007.3hPa Calm     94% 0.08in /  2.03mm
03:39 47.3 °F /  8.5 °C 45.7 °F /  7.6 °C 29.75in /  1007.3hPa Calm     94% 0.07in /  1.78mm
03:44 47.3 °F /  8.5 °C 45.7 °F /  7.6 °C 29.74in /  1007hPa Calm     94% 0.06in /  1.52mm
03:49 47.3 °F /  8.5 °C 45.7 °F /  7.6 °C 29.74in /  1007hPa Calm     94% 0.06in /  1.52mm
03:54 47.3 °F /  8.5 °C 45.7 °F /  7.6 °C 29.74in /  1007hPa Calm     94% 0.06in /  1.52mm
03:59 47.3 °F /  8.5 °C 45.7 °F /  7.6 °C 29.74in /  1007hPa Calm     94% 0.05in /  1.27mm
04:04 47.3 °F /  8.5 °C 45.7 °F /  7.6 °C 29.74in /  1007hPa Calm     94% 0.05in /  1.27mm
04:09 47.4 °F /  8.6 °C 45.8 °F /  7.7 °C 29.74in /  1007hPa Calm     94% 0.04in /  1.02mm
04:14 47.5 °F /  8.6 °C 45.9 °F /  7.7 °C 29.74in /  1007hPa Calm     94% 0.04in /  1.02mm
04:19 47.5 °F /  8.6 °C 45.9 °F /  7.7 °C 29.73in /  1006.7hPa Calm     94% 0.03in /  0.76mm
04:24 47.6 °F /  8.7 °C 46.0 °F /  7.8 °C 29.73in /  1006.7hPa Calm     94% 0.03in /  0.76mm
04:29 47.5 °F /  8.6 °C 45.9 °F /  7.7 °C 29.73in /  1006.7hPa NNW 3.0mph /  4.8km/h 4.0mph /  6.4km/h 94% 0.02in /  0.51mm
04:34 47.5 °F /  8.6 °C 45.9 °F /  7.7 °C 29.73in /  1006.7hPa NNW 2.0mph /  3.2km/h 5.0mph /  8km/h 94% 0.02in /  0.51mm
04:39 47.5 °F /  8.6 °C 45.9 °F /  7.7 °C 29.73in /  1006.7hPa Calm   4.0mph /  6.4km/h 94% 0.03in /  0.76mm
04:44 47.5 °F /  8.6 °C 45.9 °F /  7.7 °C 29.73in /  1006.7hPa NNW 1.0mph /  1.6km/h 3.0mph /  4.8km/h 94% 0.03in /  0.76mm
04:49 47.5 °F /  8.6 °C 45.9 °F /  7.7 °C 29.72in /  1006.3hPa Calm   5.0mph /  8km/h 94% 0.03in /  0.76mm
04:54 47.5 °F /  8.6 °C 45.9 °F /  7.7 °C 29.72in /  1006.3hPa NNW 1.0mph /  1.6km/h 3.0mph /  4.8km/h 94% 0.02in /  0.51mm
04:59 47.5 °F /  8.6 °C 45.9 °F /  7.7 °C 29.72in /  1006.3hPa NNW 2.0mph /  3.2km/h 2.0mph /  3.2km/h 94% 0.03in /  0.76mm
05:04 47.6 °F /  8.7 °C 46.0 °F /  7.8 °C 29.72in /  1006.3hPa NNW 1.0mph /  1.6km/h 3.0mph /  4.8km/h 94% 0.03in /  0.76mm
05:09 47.6 °F /  8.7 °C 46.0 °F /  7.8 °C 29.72in /  1006.3hPa NNW 1.0mph /  1.6km/h 3.0mph /  4.8km/h 94% 0.03in /  0.76mm
05:14 47.7 °F /  8.7 °C 46.1 °F /  7.8 °C 29.72in /  1006.3hPa NNW 1.0mph /  1.6km/h 3.0mph /  4.8km/h 94% 0.04in /  1.02mm
05:19 47.7 °F /  8.7 °C 46.1 °F /  7.8 °C 29.71in /  1006hPa NNW 1.0mph /  1.6km/h 3.0mph /  4.8km/h 94% 0.05in /  1.27mm
05:24 47.7 °F /  8.7 °C 46.1 °F /  7.8 °C 29.71in /  1006hPa Calm   3.0mph /  4.8km/h 94% 0.05in /  1.27mm
05:29 47.6 °F /  8.7 °C 46.0 °F /  7.8 °C 29.71in /  1006hPa Calm   1.0mph /  1.6km/h 94% 0.04in /  1.02mm
05:34 47.7 °F /  8.7 °C 46.1 °F /  7.8 °C 29.71in /  1006hPa Calm     94% 0.04in /  1.02mm
05:39 47.8 °F /  8.8 °C 46.4 °F /  8 °C 29.71in /  1006hPa Calm     95% 0.03in /  0.76mm
05:44 47.8 °F /  8.8 °C 46.4 °F /  8 °C 29.71in /  1006hPa Calm   2.0mph /  3.2km/h 95% 0.03in /  0.76mm
05:49 47.9 °F /  8.8 °C 46.5 °F /  8.1 °C 29.71in /  1006hPa NNW 3.0mph /  4.8km/h 3.0mph /  4.8km/h 95% 0.04in /  1.02mm
05:54 47.8 °F /  8.8 °C 46.4 °F /  8 °C 29.70in /  1005.6hPa NNW 1.0mph /  1.6km/h 3.0mph /  4.8km/h 95% 0.04in /  1.02mm
05:59 47.8 °F /  8.8 °C 46.4 °F /  8 °C 29.71in /  1006hPa Calm   3.0mph /  4.8km/h 95% 0.04in /  1.02mm
06:04 47.9 °F /  8.8 °C 46.5 °F /  8.1 °C 29.71in /  1006hPa NNW 1.0mph /  1.6km/h 3.0mph /  4.8km/h 95% 0.04in /  1.02mm
06:09 47.9 °F /  8.8 °C 46.5 °F /  8.1 °C 29.70in /  1005.6hPa NNW 1.0mph /  1.6km/h 4.0mph /  6.4km/h 95% 0.05in /  1.27mm
06:14 47.9 °F /  8.8 °C 46.5 °F /  8.1 °C 29.70in /  1005.6hPa NNW 1.0mph /  1.6km/h 4.0mph /  6.4km/h 95% 0.05in /  1.27mm
06:19 48.0 °F /  8.9 °C 46.6 °F /  8.1 °C 29.69in /  1005.3hPa NNW 1.0mph /  1.6km/h 3.0mph /  4.8km/h 95% 0.05in /  1.27mm
06:24 48.1 °F /  8.9 °C 46.7 °F /  8.2 °C 29.70in /  1005.6hPa NNW 1.0mph /  1.6km/h 4.0mph /  6.4km/h 95% 0.05in /  1.27mm
06:29 48.1 °F /  8.9 °C 46.7 °F /  8.2 °C 29.69in /  1005.3hPa NNW 1.0mph /  1.6km/h 2.0mph /  3.2km/h 95% 0.06in /  1.52mm
06:34 48.1 °F /  8.9 °C 46.7 °F /  8.2 °C 29.70in /  1005.6hPa NNW 1.0mph /  1.6km/h 4.0mph /  6.4km/h 95% 0.06in /  1.52mm
06:39 48.1 °F /  8.9 °C 46.7 °F /  8.2 °C 29.70in /  1005.6hPa NNW 1.0mph /  1.6km/h 4.0mph /  6.4km/h 95% 0.07in /  1.78mm
06:44 48.1 °F /  8.9 °C 46.7 °F /  8.2 °C 29.69in /  1005.3hPa NNW 2.0mph /  3.2km/h 3.0mph /  4.8km/h 95% 0.08in /  2.03mm
06:49 47.9 °F /  8.8 °C 46.5 °F /  8.1 °C 29.69in /  1005.3hPa North 4.0mph /  6.4km/h 4.0mph /  6.4km/h 95% 0.10in /  2.54mm
06:54 47.9 °F /  8.8 °C 46.5 °F /  8.1 °C 29.69in /  1005.3hPa Calm   4.0mph /  6.4km/h 95% 0.13in /  3.3mm
06:59 47.8 °F /  8.8 °C 46.4 °F /  8 °C 29.69in /  1005.3hPa North 2.0mph /  3.2km/h 3.0mph /  4.8km/h 95% 0.15in /  3.81mm
07:04 47.6 °F /  8.7 °C 46.2 °F /  7.9 °C 29.69in /  1005.3hPa North 2.0mph /  3.2km/h 4.0mph /  6.4km/h 95% 0.18in /  4.57mm
07:09 47.5 °F /  8.6 °C 46.1 °F /  7.8 °C 29.69in /  1005.3hPa North 2.0mph /  3.2km/h 4.0mph /  6.4km/h 95% 0.21in /  5.33mm
07:14 47.3 °F /  8.5 °C 45.9 °F /  7.7 °C 29.69in /  1005.3hPa North 2.0mph /  3.2km/h 4.0mph /  6.4km/h 95% 0.22in /  5.59mm
07:19 47.3 °F /  8.5 °C 45.9 °F /  7.7 °C 29.69in /  1005.3hPa NNE 2.0mph /  3.2km/h 5.0mph /  8km/h 95% 0.25in /  6.35mm
07:24 47.1 °F /  8.4 °C 45.7 °F /  7.6 °C 29.69in /  1005.3hPa NNW 2.0mph /  3.2km/h 4.0mph /  6.4km/h 95% 0.26in /  6.6mm
07:29 47.0 °F /  8.3 °C 45.6 °F /  7.6 °C 29.70in /  1005.6hPa NNW 1.0mph /  1.6km/h 7.0mph /  11.3km/h 95% 0.26in /  6.6mm
07:34 47.0 °F /  8.3 °C 45.6 °F /  7.6 °C 29.69in /  1005.3hPa North 2.0mph /  3.2km/h 7.0mph /  11.3km/h 95% 0.26in /  6.6mm
07:39 47.0 °F /  8.3 °C 45.6 °F /  7.6 °C 29.69in /  1005.3hPa North 2.0mph /  3.2km/h 4.0mph /  6.4km/h 95% 0.25in /  6.35mm
07:44 47.1 °F /  8.4 °C 45.7 °F /  7.6 °C 29.69in /  1005.3hPa North 3.0mph /  4.8km/h 5.0mph /  8km/h 95% 0.25in /  6.35mm
07:49 47.0 °F /  8.3 °C 45.6 °F /  7.6 °C 29.69in /  1005.3hPa NNE 1.0mph /  1.6km/h 5.0mph /  8km/h 95% 0.23in /  5.84mm
07:54 47.1 °F /  8.4 °C 45.7 °F /  7.6 °C 29.69in /  1005.3hPa North 1.0mph /  1.6km/h 4.0mph /  6.4km/h 95% 0.20in /  5.08mm
07:59 47.3 °F /  8.5 °C 45.9 °F /  7.7 °C 29.69in /  1005.3hPa NNE 3.0mph /  4.8km/h 4.0mph /  6.4km/h 95% 0.17in /  4.32mm
08:04 47.3 °F /  8.5 °C 45.9 °F /  7.7 °C 29.69in /  1005.3hPa NNE 2.0mph /  3.2km/h 5.0mph /  8km/h 95% 0.14in /  3.56mm
08:09 47.3 °F /  8.5 °C 45.9 °F /  7.7 °C 29.69in /  1005.3hPa NNE 3.0mph /  4.8km/h 5.0mph /  8km/h 95% 0.12in /  3.05mm
08:14 47.4 °F /  8.6 °C 46.0 °F /  7.8 °C 29.68in /  1005hPa NNE 3.0mph /  4.8km/h 5.0mph /  8km/h 95% 0.12in /  3.05mm
08:19 47.6 °F /  8.7 °C 46.2 °F /  7.9 °C 29.68in /  1005hPa NNE 2.0mph /  3.2km/h 4.0mph /  6.4km/h 95% 0.09in /  2.29mm
08:24 47.6 °F /  8.7 °C 46.2 °F /  7.9 °C 29.68in /  1005hPa North 2.0mph /  3.2km/h 6.0mph /  9.7km/h 95% 0.09in /  2.29mm
08:29 47.8 °F /  8.8 °C 46.4 °F /  8 °C 29.68in /  1005hPa NNE 4.0mph /  6.4km/h 5.0mph /  8km/h 95% 0.09in /  2.29mm
08:34 47.9 °F /  8.8 °C 46.5 °F /  8.1 °C 29.67in /  1004.6hPa NNE 2.0mph /  3.2km/h 5.0mph /  8km/h 95% 0.10in /  2.54mm
08:39 47.9 °F /  8.8 °C 46.5 °F /  8.1 °C 29.67in /  1004.6hPa NE 3.0mph /  4.8km/h 7.0mph /  11.3km/h 95% 0.09in /  2.29mm
08:44 48.0 °F /  8.9 °C 46.6 °F /  8.1 °C 29.67in /  1004.6hPa NNE 3.0mph /  4.8km/h 5.0mph /  8km/h 95% 0.10in /  2.54mm
08:49 48.0 °F /  8.9 °C 46.6 °F /  8.1 °C 29.67in /  1004.6hPa NNE 3.0mph /  4.8km/h 8.0mph /  12.9km/h 95% 0.10in /  2.54mm
08:54 48.1 °F /  8.9 °C 46.7 °F /  8.2 °C 29.66in /  1004.3hPa ENE 2.0mph /  3.2km/h 7.0mph /  11.3km/h 95% 0.10in /  2.54mm
08:59 48.1 °F /  8.9 °C 46.7 °F /  8.2 °C 29.66in /  1004.3hPa NNE 3.0mph /  4.8km/h 5.0mph /  8km/h 95% 0.11in /  2.79mm
09:04 48.2 °F /  9 °C 46.8 °F /  8.2 °C 29.66in /  1004.3hPa NE 3.0mph /  4.8km/h 7.0mph /  11.3km/h 95% 0.11in /  2.79mm
09:09 48.2 °F /  9 °C 46.8 °F /  8.2 °C 29.65in /  1003.9hPa NE 3.0mph /  4.8km/h 7.0mph /  11.3km/h 95% 0.09in /  2.29mm
09:14 48.3 °F /  9.1 °C 46.9 °F /  8.3 °C 29.65in /  1003.9hPa NE 3.0mph /  4.8km/h 6.0mph /  9.7km/h 95% 0.08in /  2.03mm
09:19 48.3 °F /  9.1 °C 46.9 °F /  8.3 °C 29.65in /  1003.9hPa NE 3.0mph /  4.8km/h 7.0mph /  11.3km/h 95% 0.08in /  2.03mm
09:24 48.3 °F /  9.1 °C 46.9 °F /  8.3 °C 29.65in /  1003.9hPa ENE 4.0mph /  6.4km/h 8.0mph /  12.9km/h 95% 0.08in /  2.03mm
09:29 48.3 °F /  9.1 °C 46.9 °F /  8.3 °C 29.65in /  1003.9hPa NE 4.0mph /  6.4km/h 5.0mph /  8km/h 95% 0.08in /  2.03mm
09:34 48.3 °F /  9.1 °C 46.9 °F /  8.3 °C 29.64in /  1003.6hPa NE 3.0mph /  4.8km/h 8.0mph /  12.9km/h 95% 0.08in /  2.03mm
09:39 48.3 °F /  9.1 °C 46.9 °F /  8.3 °C 29.64in /  1003.6hPa NE 3.0mph /  4.8km/h 8.0mph /  12.9km/h 95% 0.09in /  2.29mm
09:44 48.3 °F /  9.1 °C 46.9 °F /  8.3 °C 29.64in /  1003.6hPa NE 3.0mph /  4.8km/h 8.0mph /  12.9km/h 95% 0.09in /  2.29mm
09:49 48.3 °F /  9.1 °C 46.9 °F /  8.3 °C 29.64in /  1003.6hPa NE 5.0mph /  8km/h 8.0mph /  12.9km/h 95% 0.09in /  2.29mm
09:54 48.4 °F /  9.1 °C 47.0 °F /  8.3 °C 29.63in /  1003.3hPa NE 5.0mph /  8km/h 8.0mph /  12.9km/h 95% 0.10in /  2.54mm
09:59 48.5 °F /  9.2 °C 47.1 °F /  8.4 °C 29.63in /  1003.3hPa NE 3.0mph /  4.8km/h 8.0mph /  12.9km/h 95% 0.10in /  2.54mm
10:04 48.4 °F /  9.1 °C 47.0 °F /  8.3 °C 29.62in /  1002.9hPa NE 4.0mph /  6.4km/h 10.0mph /  16.1km/h 95% 0.10in /  2.54mm
10:09 48.5 °F /  9.2 °C 47.1 °F /  8.4 °C 29.62in /  1002.9hPa ENE 3.0mph /  4.8km/h 10.0mph /  16.1km/h 95% 0.11in /  2.79mm
10:14 48.5 °F /  9.2 °C 47.1 °F /  8.4 °C 29.62in /  1002.9hPa NE 5.0mph /  8km/h 11.0mph /  17.7km/h 95% 0.11in /  2.79mm
10:19 48.5 °F /  9.2 °C 47.1 °F /  8.4 °C 29.62in /  1002.9hPa North 2.0mph /  3.2km/h 11.0mph /  17.7km/h 95% 0.11in /  2.79mm
10:24 48.6 °F /  9.2 °C 47.2 °F /  8.4 °C 29.61in /  1002.6hPa NNE 3.0mph /  4.8km/h 11.0mph /  17.7km/h 95% 0.12in /  3.05mm
10:29 48.6 °F /  9.2 °C 47.2 °F /  8.4 °C 29.60in /  1002.3hPa NE 5.0mph /  8km/h 10.0mph /  16.1km/h 95% 0.12in /  3.05mm
10:34 48.7 °F /  9.3 °C 47.3 °F /  8.5 °C 29.60in /  1002.3hPa NE 4.0mph /  6.4km/h 10.0mph /  16.1km/h 95% 0.12in /  3.05mm
10:39 48.8 °F /  9.3 °C 47.4 °F /  8.6 °C 29.60in /  1002.3hPa NNE 5.0mph /  8km/h 10.0mph /  16.1km/h 95% 0.12in /  3.05mm
10:44 48.9 °F /  9.4 °C 47.5 °F /  8.6 °C 29.59in /  1001.9hPa NE 5.0mph /  8km/h 11.0mph /  17.7km/h 95% 0.12in /  3.05mm
10:49 48.9 °F /  9.4 °C 47.5 °F /  8.6 °C 29.59in /  1001.9hPa NE 5.0mph /  8km/h 11.0mph /  17.7km/h 95% 0.12in /  3.05mm
10:54 49.1 °F /  9.5 °C 47.7 °F /  8.7 °C 29.59in /  1001.9hPa NE 6.0mph /  9.7km/h 13.0mph /  20.9km/h 95% 0.11in /  2.79mm
10:59 49.2 °F /  9.6 °C 47.8 °F /  8.8 °C 29.58in /  1001.6hPa ENE 10.0mph /  16.1km/h 12.0mph /  19.3km/h 95% 0.10in /  2.54mm
11:04 49.4 °F /  9.7 °C 48.0 °F /  8.9 °C 29.58in /  1001.6hPa NE 6.0mph /  9.7km/h 13.0mph /  20.9km/h 95% 0.10in /  2.54mm
11:09 49.5 °F /  9.7 °C 48.1 °F /  8.9 °C 29.57in /  1001.2hPa North 7.0mph /  11.3km/h 12.0mph /  19.3km/h 95% 0.09in /  2.29mm
11:14 49.5 °F /  9.7 °C 48.1 °F /  8.9 °C 29.57in /  1001.2hPa NE 4.0mph /  6.4km/h 13.0mph /  20.9km/h 95% 0.08in /  2.03mm
11:19 49.5 °F /  9.7 °C 48.1 °F /  8.9 °C 29.57in /  1001.2hPa NE 4.0mph /  6.4km/h 11.0mph /  17.7km/h 95% 0.07in /  1.78mm
11:24 49.5 °F /  9.7 °C 47.8 °F /  8.8 °C 29.58in /  1001.6hPa NE 3.0mph /  4.8km/h 12.0mph /  19.3km/h 94% 0.06in /  1.52mm
11:29 49.3 °F /  9.6 °C 47.6 °F /  8.7 °C 29.57in /  1001.2hPa NE 4.0mph /  6.4km/h 11.0mph /  17.7km/h 94% 0.06in /  1.52mm
11:34 49.0 °F /  9.4 °C 47.3 °F /  8.5 °C 29.57in /  1001.2hPa NE 6.0mph /  9.7km/h 12.0mph /  19.3km/h 94% 0.06in /  1.52mm
11:44 48.5 °F /  9.2 °C 46.9 °F /  8.3 °C 29.57in /  1001.2hPa NE 8.0mph /  12.9km/h 19.0mph /  30.6km/h 94% 0.05in /  1.27mm
11:49 48.5 °F /  9.2 °C 46.9 °F /  8.3 °C 29.57in /  1001.2hPa NE 6.0mph /  9.7km/h 13.0mph /  20.9km/h 94% 0.04in /  1.02mm
11:54 48.3 °F /  9.1 °C 46.7 °F /  8.2 °C 29.57in /  1001.2hPa NE 8.0mph /  12.9km/h 12.0mph /  19.3km/h 94% 0.05in /  1.27mm
11:59 48.3 °F /  9.1 °C 46.7 °F /  8.2 °C 29.56in /  1000.9hPa NE 3.0mph /  4.8km/h 11.0mph /  17.7km/h 94% 0.05in /  1.27mm
12:04 48.3 °F /  9.1 °C 46.7 °F /  8.2 °C 29.56in /  1000.9hPa NE 6.0mph /  9.7km/h 11.0mph /  17.7km/h 94% 0.04in /  1.02mm
12:14 48.5 °F /  9.2 °C 46.9 °F /  8.3 °C 29.55in /  1000.6hPa NE 8.0mph /  12.9km/h 11.0mph /  17.7km/h 94% 0.06in /  1.52mm
12:19 48.4 °F /  9.1 °C 46.8 °F /  8.2 °C 29.54in /  1000.2hPa NE 5.0mph /  8km/h 9.0mph /  14.5km/h 94% 0.08in /  2.03mm
12:24 48.5 °F /  9.2 °C 46.9 °F /  8.3 °C 29.54in /  1000.2hPa NE 7.0mph /  11.3km/h 10.0mph /  16.1km/h 94% 0.08in /  2.03mm
12:29 48.5 °F /  9.2 °C 46.9 °F /  8.3 °C 29.54in /  1000.2hPa NE 5.0mph /  8km/h 14.0mph /  22.5km/h 94% 0.08in /  2.03mm
12:34 48.6 °F /  9.2 °C 47.0 °F /  8.3 °C 29.54in /  1000.2hPa NE 3.0mph /  4.8km/h 11.0mph /  17.7km/h 94% 0.07in /  1.78mm
12:39 48.6 °F /  9.2 °C 47.0 °F /  8.3 °C 29.54in /  1000.2hPa NE 6.0mph /  9.7km/h 11.0mph /  17.7km/h 94% 0.07in /  1.78mm
12:44 48.6 °F /  9.2 °C 47.0 °F /  8.3 °C 29.53in /  999.9hPa NE 5.0mph /  8km/h 11.0mph /  17.7km/h 94% 0.06in /  1.52mm
12:49 48.7 °F /  9.3 °C 47.1 °F /  8.4 °C 29.53in /  999.9hPa NE 6.0mph /  9.7km/h 13.0mph /  20.9km/h 94% 0.06in /  1.52mm
12:54 48.8 °F /  9.3 °C 47.2 °F /  8.4 °C 29.53in /  999.9hPa NE 6.0mph /  9.7km/h 13.0mph /  20.9km/h 94% 0.05in /  1.27mm
12:59 48.8 °F /  9.3 °C 47.2 °F /  8.4 °C 29.53in /  999.9hPa NE 6.0mph /  9.7km/h 13.0mph /  20.9km/h 94% 0.05in /  1.27mm
13:04 48.8 °F /  9.3 °C 47.2 °F /  8.4 °C 29.53in /  999.9hPa NE 5.0mph /  8km/h 16.0mph /  25.7km/h 94% 0.05in /  1.27mm
13:09 48.7 °F /  9.3 °C 47.1 °F /  8.4 °C 29.52in /  999.5hPa NE 5.0mph /  8km/h 16.0mph /  25.7km/h 94% 0.04in /  1.02mm
13:14 48.4 °F /  9.1 °C 46.5 °F /  8.1 °C 29.52in /  999.5hPa NNE 4.0mph /  6.4km/h 11.0mph /  17.7km/h 93% 0.03in /  0.76mm
13:19 48.5 °F /  9.2 °C 46.9 °F /  8.3 °C 29.52in /  999.5hPa NE 3.0mph /  4.8km/h 11.0mph /  17.7km/h 94% 0.01in /  0.25mm
13:24 48.3 °F /  9.1 °C 46.4 °F /  8 °C 29.52in /  999.5hPa NE 5.0mph /  8km/h 12.0mph /  19.3km/h 93% 0.02in /  0.51mm
13:29 48.2 °F /  9 °C 46.6 °F /  8.1 °C 29.52in /  999.5hPa NE 3.0mph /  4.8km/h 10.0mph /  16.1km/h 94% 0.01in /  0.25mm
13:34 48.2 °F /  9 °C 46.6 °F /  8.1 °C 29.51in /  999.2hPa NNE 4.0mph /  6.4km/h 7.0mph /  11.3km/h 94% 0.01in /  0.25mm
13:39 48.0 °F /  8.9 °C 46.1 °F /  7.8 °C 29.51in /  999.2hPa NE 5.0mph /  8km/h 16.0mph /  25.7km/h 93% 0.01in /  0.25mm
13:44 48.1 °F /  8.9 °C 46.5 °F /  8.1 °C 29.51in /  999.2hPa NE 5.0mph /  8km/h 16.0mph /  25.7km/h 94% 0.01in /  0.25mm
13:49 48.1 °F /  8.9 °C 46.5 °F /  8.1 °C 29.51in /  999.2hPa NE 4.0mph /  6.4km/h 10.0mph /  16.1km/h 94% 0.01in /  0.25mm
13:54 48.1 °F /  8.9 °C 46.5 °F /  8.1 °C 29.50in /  998.9hPa NE 4.0mph /  6.4km/h 11.0mph /  17.7km/h 94% 0.01in /  0.25mm
13:59 48.2 °F /  9 °C 46.6 °F /  8.1 °C 29.50in /  998.9hPa NNE 4.0mph /  6.4km/h 9.0mph /  14.5km/h 94% 0.01in /  0.25mm
14:04 48.2 °F /  9 °C 46.6 °F /  8.1 °C 29.50in /  998.9hPa NE 4.0mph /  6.4km/h 12.0mph /  19.3km/h 94% 0.01in /  0.25mm
14:09 48.4 °F /  9.1 °C 46.8 °F /  8.2 °C 29.50in /  998.9hPa NNE 3.0mph /  4.8km/h 8.0mph /  12.9km/h 94% 0.01in /  0.25mm
14:14 48.1 °F /  8.9 °C 46.2 °F /  7.9 °C 29.49in /  998.5hPa NNE 4.0mph /  6.4km/h 11.0mph /  17.7km/h 93% 0.02in /  0.51mm
14:19 48.0 °F /  8.9 °C 46.1 °F /  7.8 °C 29.49in /  998.5hPa NE 5.0mph /  8km/h 14.0mph /  22.5km/h 93% 0.02in /  0.51mm
14:24 47.8 °F /  8.8 °C 45.9 °F /  7.7 °C 29.49in /  998.5hPa NNE 5.0mph /  8km/h 9.0mph /  14.5km/h 93% 0.01in /  0.25mm
14:29 47.6 °F /  8.7 °C 45.7 °F /  7.6 °C 29.49in /  998.5hPa NE 4.0mph /  6.4km/h 14.0mph /  22.5km/h 93% 0.01in /  0.25mm
14:34 47.7 °F /  8.7 °C 45.8 °F /  7.7 °C 29.48in /  998.2hPa NE 3.0mph /  4.8km/h 12.0mph /  19.3km/h 93% 0.01in /  0.25mm
14:39 47.9 °F /  8.8 °C 46.0 °F /  7.8 °C 29.48in /  998.2hPa NNE 5.0mph /  8km/h 9.0mph /  14.5km/h 93% 0.01in /  0.25mm
14:44 47.7 °F /  8.7 °C 45.8 °F /  7.7 °C 29.48in /  998.2hPa NNE 5.0mph /  8km/h 9.0mph /  14.5km/h 93% 0.01in /  0.25mm
14:49 47.7 °F /  8.7 °C 45.8 °F /  7.7 °C 29.48in /  998.2hPa NNE 5.0mph /  8km/h 12.0mph /  19.3km/h 93% 0.01in /  0.25mm
14:54 47.9 °F /  8.8 °C 46.0 °F /  7.8 °C 29.47in /  997.9hPa NNE 3.0mph /  4.8km/h 11.0mph /  17.7km/h 93% 0.01in /  0.25mm
14:59 47.9 °F /  8.8 °C 46.3 °F /  7.9 °C 29.47in /  997.9hPa NNE 3.0mph /  4.8km/h 9.0mph /  14.5km/h 94% 0.01in /  0.25mm
15:04 47.9 °F /  8.8 °C 46.0 °F /  7.8 °C 29.47in /  997.9hPa NNE 4.0mph /  6.4km/h 8.0mph /  12.9km/h 93% 0.01in /  0.25mm
15:09 47.6 °F /  8.7 °C 45.7 °F /  7.6 °C 29.47in /  997.9hPa NE 2.0mph /  3.2km/h 10.0mph /  16.1km/h 93% 0.01in /  0.25mm
15:14 47.5 °F /  8.6 °C 45.6 °F /  7.6 °C 29.47in /  997.9hPa NNE 4.0mph /  6.4km/h 10.0mph /  16.1km/h 93% 0.00in /  0mm
15:19 47.3 °F /  8.5 °C 45.4 °F /  7.4 °C 29.47in /  997.9hPa NE 4.0mph /  6.4km/h 10.0mph /  16.1km/h 93% 0.00in /  0mm
15:24 47.3 °F /  8.5 °C 45.4 °F /  7.4 °C 29.47in /  997.9hPa NE 4.0mph /  6.4km/h 10.0mph /  16.1km/h 93% 0.00in /  0mm
15:29 47.5 °F /  8.6 °C 45.9 °F /  7.7 °C 29.47in /  997.9hPa NE 4.0mph /  6.4km/h 11.0mph /  17.7km/h 94% 0.01in /  0.25mm
15:34 47.6 °F /  8.7 °C 46.0 °F /  7.8 °C 29.46in /  997.5hPa NE 6.0mph /  9.7km/h 9.0mph /  14.5km/h 94% 0.02in /  0.51mm
15:39 47.3 °F /  8.5 °C 45.4 °F /  7.4 °C 29.46in /  997.5hPa NE 5.0mph /  8km/h 8.0mph /  12.9km/h 93% 0.02in /  0.51mm
15:44 47.3 °F /  8.5 °C 45.4 °F /  7.4 °C 29.46in /  997.5hPa NNE 4.0mph /  6.4km/h 8.0mph /  12.9km/h 93% 0.02in /  0.51mm
15:49 47.4 °F /  8.6 °C 45.8 °F /  7.7 °C 29.45in /  997.2hPa NNE 4.0mph /  6.4km/h 11.0mph /  17.7km/h 94% 0.02in /  0.51mm
15:54 47.5 °F /  8.6 °C 45.9 °F /  7.7 °C 29.45in /  997.2hPa NE 4.0mph /  6.4km/h 12.0mph /  19.3km/h 94% 0.02in /  0.51mm
15:59 47.5 °F /  8.6 °C 45.9 °F /  7.7 °C 29.45in /  997.2hPa NE 3.0mph /  4.8km/h 10.0mph /  16.1km/h 94% 0.02in /  0.51mm
16:04 47.6 °F /  8.7 °C 46.0 °F /  7.8 °C 29.45in /  997.2hPa NNE 5.0mph /  8km/h 11.0mph /  17.7km/h 94% 0.02in /  0.51mm
16:09 47.7 °F /  8.7 °C 46.1 °F /  7.8 °C 29.45in /  997.2hPa NE 6.0mph /  9.7km/h 6.0mph /  9.7km/h 94% 0.02in /  0.51mm
16:14 47.5 °F /  8.6 °C 45.9 °F /  7.7 °C 29.44in /  996.8hPa NNE 4.0mph /  6.4km/h 12.0mph /  19.3km/h 94% 0.02in /  0.51mm
16:19 47.4 °F /  8.6 °C 45.8 °F /  7.7 °C 29.44in /  996.8hPa NE 5.0mph /  8km/h 12.0mph /  19.3km/h 94% 0.02in /  0.51mm
16:24 47.5 °F /  8.6 °C 45.9 °F /  7.7 °C 29.44in /  996.8hPa NNE 5.0mph /  8km/h 12.0mph /  19.3km/h 94% 0.02in /  0.51mm
16:29 47.6 °F /  8.7 °C 46.0 °F /  7.8 °C 29.44in /  996.8hPa NE 5.0mph /  8km/h 12.0mph /  19.3km/h 94% 0.01in /  0.25mm
16:34 47.6 °F /  8.7 °C 46.0 °F /  7.8 °C 29.44in /  996.8hPa NE 3.0mph /  4.8km/h 10.0mph /  16.1km/h 94% 0.00in /  0mm
16:39 47.7 °F /  8.7 °C 46.1 °F /  7.8 °C 29.43in /  996.5hPa NNE 6.0mph /  9.7km/h 10.0mph /  16.1km/h 94% 0.00in /  0mm
16:44 47.8 °F /  8.8 °C 45.9 °F /  7.7 °C 29.43in /  996.5hPa NE 2.0mph /  3.2km/h 11.0mph /  17.7km/h 93% 0.00in /  0mm
16:49 47.8 °F /  8.8 °C 46.2 °F /  7.9 °C 29.43in /  996.5hPa NE 5.0mph /  8km/h 11.0mph /  17.7km/h 94% 0.00in /  0mm
16:54 47.8 °F /  8.8 °C 45.9 °F /  7.7 °C 29.43in /  996.5hPa NE 5.0mph /  8km/h 11.0mph /  17.7km/h 93% 0.00in /  0mm
16:59 47.9 °F /  8.8 °C 46.3 °F /  7.9 °C 29.43in /  996.5hPa NE 6.0mph /  9.7km/h 11.0mph /  17.7km/h 94% 0.00in /  0mm
17:04 47.8 °F /  8.8 °C 45.9 °F /  7.7 °C 29.43in /  996.5hPa NE 5.0mph /  8km/h 10.0mph /  16.1km/h 93% 0.00in /  0mm
17:09 47.8 °F /  8.8 °C 45.9 °F /  7.7 °C 29.43in /  996.5hPa NNE 4.0mph /  6.4km/h 10.0mph /  16.1km/h 93% 0.00in /  0mm
17:14 47.8 °F /  8.8 °C 45.9 °F /  7.7 °C 29.43in /  996.5hPa ENE 7.0mph /  11.3km/h 10.0mph /  16.1km/h 93% 0.00in /  0mm
17:19 47.7 °F /  8.7 °C 45.8 °F /  7.7 °C 29.43in /  996.5hPa NE 6.0mph /  9.7km/h 11.0mph /  17.7km/h 93% 0.00in /  0mm
17:24 47.8 °F /  8.8 °C 45.9 °F /  7.7 °C 29.44in /  996.8hPa NE 6.0mph /  9.7km/h 8.0mph /  12.9km/h 93% 0.00in /  0mm
17:29 47.8 °F /  8.8 °C 46.2 °F /  7.9 °C 29.44in /  996.8hPa NE 2.0mph /  3.2km/h 8.0mph /  12.9km/h 94% 0.00in /  0mm
17:34 47.8 °F /  8.8 °C 46.2 °F /  7.9 °C 29.43in /  996.5hPa NE 7.0mph /  11.3km/h 7.0mph /  11.3km/h 94% 0.00in /  0mm
17:39 47.8 °F /  8.8 °C 46.2 °F /  7.9 °C 29.43in /  996.5hPa NE 2.0mph /  3.2km/h 8.0mph /  12.9km/h 94% 0.01in /  0.25mm
17:44 47.9 °F /  8.8 °C 46.3 °F /  7.9 °C 29.43in /  996.5hPa North 5.0mph /  8km/h 9.0mph /  14.5km/h 94% 0.01in /  0.25mm
17:49 47.9 °F /  8.8 °C 46.3 °F /  7.9 °C 29.43in /  996.5hPa NE 4.0mph /  6.4km/h 9.0mph /  14.5km/h 94% 0.01in /  0.25mm
17:54 48.0 °F /  8.9 °C 46.4 °F /  8 °C 29.42in /  996.2hPa NE 4.0mph /  6.4km/h 9.0mph /  14.5km/h 94% 0.01in /  0.25mm
17:59 47.9 °F /  8.8 °C 46.3 °F /  7.9 °C 29.42in /  996.2hPa NE 3.0mph /  4.8km/h 8.0mph /  12.9km/h 94% 0.02in /  0.51mm
18:04 47.9 °F /  8.8 °C 46.3 °F /  7.9 °C 29.42in /  996.2hPa NE 4.0mph /  6.4km/h 8.0mph /  12.9km/h 94% 0.02in /  0.51mm
18:09 47.9 °F /  8.8 °C 46.3 °F /  7.9 °C 29.42in /  996.2hPa NE 3.0mph /  4.8km/h 8.0mph /  12.9km/h 94% 0.03in /  0.76mm
18:14 48.0 °F /  8.9 °C 46.4 °F /  8 °C 29.42in /  996.2hPa NNE 3.0mph /  4.8km/h 8.0mph /  12.9km/h 94% 0.03in /  0.76mm
18:19 47.9 °F /  8.8 °C 46.3 °F /  7.9 °C 29.42in /  996.2hPa NE 2.0mph /  3.2km/h 8.0mph /  12.9km/h 94% 0.03in /  0.76mm
18:24 48.0 °F /  8.9 °C 46.4 °F /  8 °C 29.42in /  996.2hPa NNE 1.0mph /  1.6km/h 4.0mph /  6.4km/h 94% 0.03in /  0.76mm
18:29 48.0 °F /  8.9 °C 46.4 °F /  8 °C 29.42in /  996.2hPa NNE 2.0mph /  3.2km/h 7.0mph /  11.3km/h 94% 0.04in /  1.02mm
18:34 48.0 °F /  8.9 °C 46.4 °F /  8 °C 29.42in /  996.2hPa North 1.0mph /  1.6km/h 6.0mph /  9.7km/h 94% 0.04in /  1.02mm
18:39 48.0 °F /  8.9 °C 46.4 °F /  8 °C 29.42in /  996.2hPa North 2.0mph /  3.2km/h 4.0mph /  6.4km/h 94% 0.03in /  0.76mm
18:44 47.9 °F /  8.8 °C 46.3 °F /  7.9 °C 29.42in /  996.2hPa North 1.0mph /  1.6km/h 5.0mph /  8km/h 94% 0.04in /  1.02mm
18:49 48.0 °F /  8.9 °C 46.4 °F /  8 °C 29.42in /  996.2hPa NE 1.0mph /  1.6km/h 5.0mph /  8km/h 94% 0.04in /  1.02mm
18:54 48.0 °F /  8.9 °C 46.4 °F /  8 °C 29.42in /  996.2hPa NNE 2.0mph /  3.2km/h 5.0mph /  8km/h 94% 0.05in /  1.27mm
18:59 47.9 °F /  8.8 °C 46.3 °F /  7.9 °C 29.43in /  996.5hPa NNE 2.0mph /  3.2km/h 5.0mph /  8km/h 94% 0.05in /  1.27mm
19:04 47.9 °F /  8.8 °C 46.3 °F /  7.9 °C 29.43in /  996.5hPa North 2.0mph /  3.2km/h 5.0mph /  8km/h 94% 0.06in /  1.52mm
19:09 47.9 °F /  8.8 °C 46.3 °F /  7.9 °C 29.43in /  996.5hPa NNW 2.0mph /  3.2km/h 5.0mph /  8km/h 94% 0.06in /  1.52mm
19:14 47.9 °F /  8.8 °C 46.3 °F /  7.9 °C 29.43in /  996.5hPa NNW 2.0mph /  3.2km/h 4.0mph /  6.4km/h 94% 0.07in /  1.78mm
19:19 47.9 °F /  8.8 °C 46.3 °F /  7.9 °C 29.43in /  996.5hPa NNW 2.0mph /  3.2km/h 5.0mph /  8km/h 94% 0.08in /  2.03mm
19:24 47.8 °F /  8.8 °C 46.2 °F /  7.9 °C 29.44in /  996.8hPa NNW 2.0mph /  3.2km/h 5.0mph /  8km/h 94% 0.08in /  2.03mm
19:29 47.7 °F /  8.7 °C 46.1 °F /  7.8 °C 29.44in /  996.8hPa NNW 2.0mph /  3.2km/h 5.0mph /  8km/h 94% 0.07in /  1.78mm
19:34 47.7 °F /  8.7 °C 46.1 °F /  7.8 °C 29.44in /  996.8hPa NW 2.0mph /  3.2km/h 5.0mph /  8km/h 94% 0.07in /  1.78mm
19:39 47.6 °F /  8.7 °C 46.0 °F /  7.8 °C 29.44in /  996.8hPa North 3.0mph /  4.8km/h 4.0mph /  6.4km/h 94% 0.07in /  1.78mm
19:44 47.6 °F /  8.7 °C 46.0 °F /  7.8 °C 29.44in /  996.8hPa NW 2.0mph /  3.2km/h 4.0mph /  6.4km/h 94% 0.06in /  1.52mm
19:49 47.6 °F /  8.7 °C 46.0 °F /  7.8 °C 29.44in /  996.8hPa NNW 3.0mph /  4.8km/h 4.0mph /  6.4km/h 94% 0.06in /  1.52mm
19:54 47.6 °F /  8.7 °C 46.0 °F /  7.8 °C 29.44in /  996.8hPa NNW 2.0mph /  3.2km/h 5.0mph /  8km/h 94% 0.05in /  1.27mm
19:59 47.5 °F /  8.6 °C 45.9 °F /  7.7 °C 29.44in /  996.8hPa NNW 1.0mph /  1.6km/h 4.0mph /  6.4km/h 94% 0.04in /  1.02mm
20:04 47.4 °F /  8.6 °C 45.8 °F /  7.7 °C 29.44in /  996.8hPa NNW 1.0mph /  1.6km/h 4.0mph /  6.4km/h 94% 0.03in /  0.76mm
20:09 47.4 °F /  8.6 °C 45.8 °F /  7.7 °C 29.44in /  996.8hPa NNW 3.0mph /  4.8km/h 5.0mph /  8km/h 94% 0.02in /  0.51mm
20:14 47.3 °F /  8.5 °C 45.7 °F /  7.6 °C 29.43in /  996.5hPa NW 2.0mph /  3.2km/h 6.0mph /  9.7km/h 94% 0.01in /  0.25mm
20:19 47.0 °F /  8.3 °C 45.4 °F /  7.4 °C 29.42in /  996.2hPa NNW 3.0mph /  4.8km/h 8.0mph /  12.9km/h 94% 0.00in /  0mm
20:24 46.9 °F /  8.3 °C 45.3 °F /  7.4 °C 29.42in /  996.2hPa NNW 3.0mph /  4.8km/h 8.0mph /  12.9km/h 94% 0.00in /  0mm
20:29 46.7 °F /  8.2 °C 45.1 °F /  7.3 °C 29.42in /  996.2hPa NNW 3.0mph /  4.8km/h 6.0mph /  9.7km/h 94% 0.00in /  0mm
20:34 46.7 °F /  8.2 °C 45.1 °F /  7.3 °C 29.43in /  996.5hPa North 3.0mph /  4.8km/h 6.0mph /  9.7km/h 94% 0.00in /  0mm
20:39 46.6 °F /  8.1 °C 45.0 °F /  7.2 °C 29.43in /  996.5hPa North 3.0mph /  4.8km/h 6.0mph /  9.7km/h 94% 0.00in /  0mm
20:44 46.5 °F /  8.1 °C 44.9 °F /  7.2 °C 29.43in /  996.5hPa Calm   6.0mph /  9.7km/h 94% 0.00in /  0mm
20:49 46.5 °F /  8.1 °C 44.9 °F /  7.2 °C 29.43in /  996.5hPa NNW 7.0mph /  11.3km/h 7.0mph /  11.3km/h 94% 0.00in /  0mm
20:54 46.5 °F /  8.1 °C 44.9 °F /  7.2 °C 29.44in /  996.8hPa NNW 2.0mph /  3.2km/h 8.0mph /  12.9km/h 94% 0.00in /  0mm
20:59 46.3 °F /  7.9 °C 44.7 °F /  7.1 °C 29.43in /  996.5hPa NNW 1.0mph /  1.6km/h 6.0mph /  9.7km/h 94% 0.00in /  0mm
21:04 46.4 °F /  8 °C 44.8 °F /  7.1 °C 29.44in /  996.8hPa NNW 1.0mph /  1.6km/h 3.0mph /  4.8km/h 94% 0.00in /  0mm
21:09 46.5 °F /  8.1 °C 44.9 °F /  7.2 °C 29.44in /  996.8hPa NNW 2.0mph /  3.2km/h 4.0mph /  6.4km/h 94% 0.00in /  0mm
21:14 46.5 °F /  8.1 °C 44.9 °F /  7.2 °C 29.44in /  996.8hPa NNW 2.0mph /  3.2km/h 4.0mph /  6.4km/h 94% 0.00in /  0mm
21:19 46.5 °F /  8.1 °C 44.9 °F /  7.2 °C 29.44in /  996.8hPa NNW 2.0mph /  3.2km/h 3.0mph /  4.8km/h 94% 0.00in /  0mm
21:24 46.5 °F /  8.1 °C 44.9 °F /  7.2 °C 29.44in /  996.8hPa North 2.0mph /  3.2km/h 5.0mph /  8km/h 94% 0.00in /  0mm
21:29 46.5 °F /  8.1 °C 44.9 °F /  7.2 °C 29.44in /  996.8hPa North 2.0mph /  3.2km/h 6.0mph /  9.7km/h 94% 0.00in /  0mm
21:34 46.4 °F /  8 °C 44.8 °F /  7.1 °C 29.44in /  996.8hPa NNW 2.0mph /  3.2km/h 6.0mph /  9.7km/h 94% 0.00in /  0mm
21:39 46.3 °F /  7.9 °C 44.7 °F /  7.1 °C 29.44in /  996.8hPa Calm   5.0mph /  8km/h 94% 0.00in /  0mm
21:44 46.2 °F /  7.9 °C 44.6 °F /  7 °C 29.43in /  996.5hPa North 2.0mph /  3.2km/h 6.0mph /  9.7km/h 94% 0.00in /  0mm
21:49 45.9 °F /  7.7 °C 44.3 °F /  6.8 °C 29.43in /  996.5hPa NW 5.0mph /  8km/h 10.0mph /  16.1km/h 94% 0.00in /  0mm
21:54 45.4 °F /  7.4 °C 43.8 °F /  6.6 °C 29.43in /  996.5hPa NW 4.0mph /  6.4km/h 10.0mph /  16.1km/h 94% 0.00in /  0mm
21:59 45.1 °F /  7.3 °C 43.5 °F /  6.4 °C 29.43in /  996.5hPa NW 3.0mph /  4.8km/h 9.0mph /  14.5km/h 94% 0.00in /  0mm
22:04 44.9 °F /  7.2 °C 43.3 °F /  6.3 °C 29.43in /  996.5hPa NNW 3.0mph /  4.8km/h 9.0mph /  14.5km/h 94% 0.00in /  0mm
22:09 44.8 °F /  7.1 °C 43.2 °F /  6.2 °C 29.43in /  996.5hPa NNW 2.0mph /  3.2km/h 6.0mph /  9.7km/h 94% 0.00in /  0mm
22:14 44.8 °F /  7.1 °C 43.2 °F /  6.2 °C 29.44in /  996.8hPa NW 2.0mph /  3.2km/h 9.0mph /  14.5km/h 94% 0.00in /  0mm
22:19 44.9 °F /  7.2 °C 43.3 °F /  6.3 °C 29.43in /  996.5hPa NNW 2.0mph /  3.2km/h 8.0mph /  12.9km/h 94% 0.00in /  0mm
22:24 44.9 °F /  7.2 °C 43.3 °F /  6.3 °C 29.44in /  996.8hPa West 2.0mph /  3.2km/h 5.0mph /  8km/h 94% 0.00in /  0mm
22:29 45.1 °F /  7.3 °C 43.5 °F /  6.4 °C 29.44in /  996.8hPa NW 2.0mph /  3.2km/h 6.0mph /  9.7km/h 94% 0.00in /  0mm
22:34 45.1 °F /  7.3 °C 43.5 °F /  6.4 °C 29.44in /  996.8hPa NW 2.0mph /  3.2km/h 6.0mph /  9.7km/h 94% 0.00in /  0mm
22:39 45.2 °F /  7.3 °C 43.6 °F /  6.4 °C 29.43in /  996.5hPa NW 1.0mph /  1.6km/h 6.0mph /  9.7km/h 94% 0.01in /  0.25mm
22:44 45.4 °F /  7.4 °C 44.1 °F /  6.7 °C 29.43in /  996.5hPa NE 2.0mph /  3.2km/h 4.0mph /  6.4km/h 95% 0.01in /  0.25mm
22:49 45.5 °F /  7.5 °C 44.2 °F /  6.8 °C 29.42in /  996.2hPa NNW 1.0mph /  1.6km/h 4.0mph /  6.4km/h 95% 0.01in /  0.25mm
22:54 45.7 °F /  7.6 °C 44.4 °F /  6.9 °C 29.42in /  996.2hPa NNW 1.0mph /  1.6km/h 5.0mph /  8km/h 95% 0.01in /  0.25mm
22:59 45.8 °F /  7.7 °C 44.4 °F /  6.9 °C 29.41in /  995.8hPa North 2.0mph /  3.2km/h 8.0mph /  12.9km/h 95% 0.01in /  0.25mm
23:04 46.0 °F /  7.8 °C 44.6 °F /  7 °C 29.42in /  996.2hPa North 3.0mph /  4.8km/h 8.0mph /  12.9km/h 95% 0.01in /  0.25mm
23:09 46.1 °F /  7.8 °C 44.7 °F /  7.1 °C 29.43in /  996.5hPa North 2.0mph /  3.2km/h 5.0mph /  8km/h 95% 0.01in /  0.25mm
23:14 46.1 °F /  7.8 °C 44.7 °F /  7.1 °C 29.44in /  996.8hPa NNW 1.0mph /  1.6km/h 4.0mph /  6.4km/h 95% 0.01in /  0.25mm
23:19 46.3 °F /  7.9 °C 44.9 °F /  7.2 °C 29.45in /  997.2hPa South 1.0mph /  1.6km/h 4.0mph /  6.4km/h 95% 0.01in /  0.25mm
23:24 46.3 °F /  7.9 °C 44.9 °F /  7.2 °C 29.45in /  997.2hPa SSE 1.0mph /  1.6km/h 3.0mph /  4.8km/h 95% 0.02in /  0.51mm
23:29 46.4 °F /  8 °C 45.0 °F /  7.2 °C 29.44in /  996.8hPa WNW 3.0mph /  4.8km/h 3.0mph /  4.8km/h 95% 0.03in /  0.76mm
23:34 46.5 °F /  8.1 °C 45.1 °F /  7.3 °C 29.42in /  996.2hPa North 4.0mph /  6.4km/h 6.0mph /  9.7km/h 95% 0.04in /  1.02mm
23:39 46.5 °F /  8.1 °C 45.1 °F /  7.3 °C 29.41in /  995.8hPa NW 4.0mph /  6.4km/h 8.0mph /  12.9km/h 95% 0.04in /  1.02mm
23:44 46.5 °F /  8.1 °C 45.1 °F /  7.3 °C 29.41in /  995.8hPa NNW 2.0mph /  3.2km/h 10.0mph /  16.1km/h 95% 0.04in /  1.02mm
23:49 46.5 °F /  8.1 °C 45.1 °F /  7.3 °C 29.41in /  995.8hPa SW 4.0mph /  6.4km/h 4.0mph /  6.4km/h 95% 0.04in /  1.02mm
23:54 46.6 °F /  8.1 °C 45.2 °F /  7.3 °C 29.41in /  995.8hPa NW 4.0mph /  6.4km/h 5.0mph /  8km/h 95% 0.04in /  1.02mm
23:59 46.5 °F /  8.1 °C 45.1 °F /  7.3 °C 29.41in /  995.8hPa NW 2.0mph /  3.2km/h 7.0mph /  11.3km/h 95% 0.04in /  1.02mm
Buffalo, New York, USA
Compliments of Weather Underground - 2.5 mb